Cheadle Airport

CFQ4 · Alberta, Canada

METAR historie CFQ4 · Cheadle Airport

Hieronder zie je METAR's van de afgelopen dagen. Kies een jaar om door oudere METAR's te bladeren, vanaf het jaar 2007.

20 mei 2024

Tijd Code Weer Temp. Zicht Plafond Wind METAR/SPECI
21:00
M
6 °C 10 mi 1.100 ft 090° 090° 7 kt METAR CYYC 210300Z 09007KT 10SM BKN011 OVC043 06/04 A2997 RMK SC5SC3 SLP183
20:54
M
6 °C 10 mi 1.100 ft 100° 100° 6 kt METAR CYYC 210254Z 10006KT 10SM BKN011 OVC046 06/04 A2997 RMK SC5SC3 SLP182
20:00
V
6 °C 9 mi 7.600 ft 060° 060° 10 kt METAR CYYC 210200Z 06010KT 9SM VCSH SCT017 BKN076 OVC150 06/04 A2995 RMK SC3AC3AC2 SH NW SLP175
19:26
V
7 °C 8 mi 15.000 ft 050° 050° 10 kt METAR CYYC 210126Z 05010KT 8SM VCSH FEW022 SCT072 BKN150 07/04 A2994 RMK SC1AC5AC1 SH SW AND NW SLP173
19:00
V
6 °C 15 mi 4.800 ft 010° 010° 11 kt METAR CYYC 210100Z 01011KT 15SM FEW021 BKN048 OVC063 06/05 A2995 RMK SF2SC4SC2 SLP175
18:44
V
7 °C 15 mi 4.800 ft 010° 010° 13 kt METAR CYYC 210044Z 01013KT 15SM BKN048 OVC061 07/05 A2995 RMK SC6SC2 SLP174
18:00
M
7 °C 7 mi 1.900 ft 350° 350° 18 - 24 kt METAR CYYC 210000Z 35018G24KT 7SM -RA BKN019 OVC040 07/04 A2995 RMK SC6SC2 SLP174
17:45
V
8 °C 15 mi 3.400 ft 330° 330° 15 - 24 kt METAR CYYC 202345Z 33015G24KT 15SM -RA OVC034 08/02 A2994 RMK SC8 SLP168
17:00
V
10 °C 15 mi 11.000 ft 330° 330° 13 - 22 kt METAR CYYC 202300Z 33013G22KT 15SM SCT034 OVC110 10/03 A2993 RMK SC3AC5 SLP164
16:00
M
9 °C 15 mi 3.000 ft 330° 330° 14 - 22 kt METAR CYYC 202200Z 33014G22KT 15SM BKN030 OVC040 09/02 A2994 RMK SF5SC3 SLP168
15:00
M
8 °C 10 mi 2.100 ft 330° 330° 18 - 25 kt METAR CYYC 202100Z 33018G25KT 10SM SCT020 BKN021 OVC030 08/03 A2995 RMK SF3SC3SC2 SLP173
14:46
M
7 °C 10 mi 2.000 ft 330° 330° 19 - 26 kt METAR CYYC 202046Z 33019G26KT 10SM BKN020 BKN030 OVC050 07/03 A2995 RMK SF5SC2SC1 SLP174
14:00
M
7 °C 8 mi 2.200 ft 320° 320° 14 - 19 kt METAR CYYC 202000Z 32014G19KT 8SM -RA BKN022 BKN030 OVC040 07/03 A2995 RMK SF5SC2SC1 SLP176
13:00
V
7 °C 9 mi 4.200 ft 310° 310° 12 - 19 kt METAR CYYC 201900Z 31012G19KT 9SM -RA OVC042 07/03 A2997 RMK SC8 SLP181
12:00
M
6 °C 8 mi 1.600 ft 300° 300° 13 kt METAR CYYC 201800Z 30013KT 8SM -RA BKN016 OVC050 06/03 A2998 RMK SF7SC1 SLP186
11:00
M
6 °C 7 mi 3.000 ft 330° 330° 12 - 19 kt METAR CYYC 201700Z 33012G19KT 7SM -RA OVC030 06/02 A2997 RMK SC8 SLP183
10:47
M
6 °C 7 mi 2.200 ft 320° 320° 14 kt METAR CYYC 201647Z 32014KT 7SM -RA OVC022 06/02 A2997 RMK SC8 SLP183
10:00
V
6 °C 15 mi 5.000 ft 330° 330° 13 - 19 kt METAR CYYC 201600Z 33013G19KT 15SM BKN050 06/01 A2998 RMK SC8 SLP186
09:00
M
5 °C 15 mi 2.100 ft 310° 310° 9 kt METAR CYYC 201500Z 31009KT 15SM OVC021 05/02 A2999 RMK SC8 SLP188
08:52
M
4 °C 15 mi 2.500 ft 310° 310° 7 kt METAR CYYC 201452Z 31007KT 15SM OVC025 04/02 A2998 RMK SC8 SLP187
08:00
M
5 °C 8 mi 1.800 ft 330° 330° 7 kt METAR CYYC 201400Z 33007KT 8SM -RA OVC018 05/02 A2998 RMK SC8 SLP184
07:00
M
4 °C 9 mi 3.000 ft 310° 310° 6 kt METAR CYYC 201300Z 31006KT 9SM SCT018 BKN030 BKN051 BKN079 OVC099 04/02 A2998 RMK CF3SC2SC1AC1AC1 SLP183
06:00
V
4 °C 8 mi 3.800 ft 320° 320° 8 kt METAR CYYC 201200Z 32008KT 8SM FEW018 BKN038 OVC075 04/01 A2998 RMK CF2SC4AC2 SLP183
05:00
M
4 °C 8 mi 2.100 ft 310° 310° 7 kt METAR CYYC 201100Z 31007KT 8SM OVC021 04/01 A2998 RMK SC8 SLP181
04:00
M
4 °C 8 mi 1.900 ft 270° 270° 5 kt METAR CYYC 201000Z 27005KT 8SM -RA OVC019 04/02 A2998 RMK SC8 SLP182
03:00
V
4 °C 8 mi 7.200 ft 330° 330° 7 kt METAR CYYC 200900Z 33007KT 8SM -RA FEW018 BKN072 OVC150 04/01 A2999 RMK SC2AC4AC2 INTMT - RA SLP191
02:00
M
4 °C 8 mi 1.800 ft 310° 310° 5 kt METAR CYYC 200800Z 31005KT 8SM -RA BR BKN018 BKN042 OVC092 04/02 A3000 RMK SC5SC2AC1 SLP189
01:00
M
3 °C 8 mi 1.500 ft 360° 360° 11 - 18 kt METAR CYYC 200700Z 36011G18KT 8SM -RA BR BKN015 BKN027 OVC039 03/02 A3001 RMK SC5SC2SC1 SLP191
00:00
M
4 °C 6 mi 1.600 ft 270° 270° 6 kt METAR CYYC 200600Z 27006KT 6SM -RA BR BKN016 OVC043 04/02 A3001 RMK SC6SC2 SLP191

19 mei 2024

Tijd Code Weer Temp. Zicht Plafond Wind METAR/SPECI
23:00
M
5 °C 8 mi 1.900 ft 320° 320° 11 kt METAR CYYC 200500Z 32011KT 8SM -RA BR BKN019 OVC042 05/02 A3001 RMK SC6SC2 SLP191
22:00
M
6 °C 6 mi 2.700 ft 310° 310° 7 kt METAR CYYC 200400Z 31007KT 6SM -RA BR BKN027 OVC047 06/02 A3001 RMK SC7SC1 SLP190
21:55
M
6 °C 6 mi 2.300 ft 310° 310° 10 kt METAR CYYC 200355Z 31010KT 6SM -RA BR OVC023 06/02 A3001 RMK SC8 SLP190
21:00
V
6 °C 8 mi 3.400 ft 350° 350° 6 kt METAR CYYC 200300Z 35006KT 8SM -SHRA FEW016 BKN034 OVC072 06/02 A2999 RMK CF1SC5AC2 SLP187
20:00
V
7 °C 8 mi 3.400 ft 260° 260° 4 kt METAR CYYC 200200Z 26004KT 210V280 8SM -SHRA BKN034 OVC068 07/01 A2997 RMK SC6AC2 CVCTV CLD EMBD SLP179
19:19
M
8 °C 8 mi 2.400 ft 280° 280° 5 kt METAR CYYC 200119Z 28005KT 250V340 8SM -SHRA BKN024TCU OVC053 08/01 A2996 RMK TCU5SC3 SLP176
19:00
V
8 °C 8 mi 4.300 ft 340° 340° 9 - 19 kt METAR CYYC 200100Z 34009G19KT 8SM OVC043TCU 08/02 A2997 RMK TCU8 SLP178
18:17
V
7 °C 7 mi 4.700 ft 350° 350° 16 kt METAR CYYC 200017Z 35016KT 7SM -SHRA OVC047TCU 07/01 A2995 RMK TCU8 SLP176
18:00
V
8 °C 15 mi 6.000 ft 350° 350° 14 - 22 kt METAR CYYC 200000Z 35014G22KT 15SM BKN060TCU OVC076 08/00 A2995 RMK TCU7AC1 SLP175
17:00
V
9 °C 15 mi 6.700 ft 020° 020° 14 - 24 kt METAR CYYC 192300Z 02014G24KT 15SM SCT050 BKN067 BKN100 OVC230 09/02 A2993 RMK SC3AC3AC1CI1 SLP166
16:00
V
10 °C 15 mi 21.000 ft 310° 310° 5 kt METAR CYYC 192200Z 31005KT 250V350 15SM FEW025CB SCT110 BKN210 10/M01 A2991 RMK CB1AC2CI4 SLP154 DENSITY ALT 3900FT
15:00
V
5 °C 15 mi 11.000 ft 020° 020° 12 - 20 kt METAR CYYC 192100Z 02012G20KT 15SM FEW025CB BKN110 05/02 A2993 RMK CB2AC5 SLP169
14:52
V
5 °C 15 mi 9.500 ft 020° 020° 16 kt METAR CYYC 192052Z 02016KT 15SM SCT025CB BKN095 05/01 A2993 RMK CB3AC4 SLP171
14:08
M
7 °C 15 mi 2.100 ft 320° 320° 30 - 37 kt METAR CYYC 192008Z 32030G37KT 250V330 15SM -TSRA BKN021CB BKN150 07/01 A2993 RMK CB7AC1 AC TR PRESRR SLP168
14:00
V
9 °C 15 mi 3.300 ft 270° 270° 14 - 19 kt METAR CYYC 192000Z 27014G19KT 15SM -SHRA BKN033CB BKN150 09/01 A2990 RMK CB6AC1 SLP153 DENSITY ALT 3900FT
14:01
V
10 °C 15 mi 3.300 ft 270° 270° 15 kt METAR CYYC 192001Z 27015KT 15SM -TSRA BKN033CB BKN150 10/02 A2990 RMK CB6AC1 PRESRR SLP153 DENSITY ALT 3900FT
13:47
V
9 °C 15 mi 3.200 ft 290° 290° 17 - 29 kt METAR CYYC 191947Z 29017G29KT 15SM -SHRA BKN032TCU BKN150 09/01 A2989 RMK TCU6AC1 PRESRR SLP149
13:00
V
12 °C 40 mi 5.500 ft 280° 280° 8 - 19 kt METAR CYYC 191900Z 28008G19KT 260V350 40SM BKN055TCU BKN100 12/M03 A2988 RMK TCU5AC1 SLP143 DENSITY ALT 4200FT
12:00
V
10 °C 40 mi 5.500 ft 010° 010° 13 kt METAR CYYC 191800Z 01013KT 330V030 40SM BKN055TCU 10/00 A2989 RMK TCU6 SLP146 DENSITY ALT 4000FT
11:00
V
10 °C 40 mi 4.500 ft 010° 010° 10 - 20 kt METAR CYYC 191700Z 01010G20KT 40SM BKN045 BKN300 10/00 A2990 RMK CU5CI1 CI TR SLP149 DENSITY ALT 3900FT
10:00
V
9 °C 40 mi 11.000 ft 340° 340° 13 - 19 kt METAR CYYC 191600Z 34013G19KT 40SM FEW036 BKN110 09/M00 A2990 RMK CU1AC5 SLP153
09:00
V
7 °C 40 mi 9.000 ft 310° 310° 8 kt METAR CYYC 191500Z 31008KT 40SM FEW064 BKN090 07/M01 A2990 RMK SC1AC6 SC TR SLP154
08:00
V
6 °C 40 mi 11.000 ft 330° 330° 10 kt METAR CYYC 191400Z 33010KT 40SM SCT064 BKN110 06/M01 A2989 RMK SC3AC3 SLP152
07:00
V
5 °C 20 mi 11.000 ft 340° 340° 8 kt METAR CYYC 191300Z 34008KT 20SM SCT064 BKN110 BKN220 05/M01 A2988 RMK SC3AC3CI1 VIRGA NW AND E-SE SLP143
06:00
V
3 °C 20 mi 10.000 ft 340° 340° 6 kt METAR CYYC 191200Z 34006KT 20SM FEW064 BKN100 BKN220 03/M01 A2987 RMK SC1AC5CI1 VIRGA NW-E SLP143
05:00
V
2 °C 15 mi 22.000 ft 340° 340° 5 kt METAR CYYC 191100Z 34005KT 15SM SCT095 BKN220 02/M01 A2986 RMK AC3CI3 VIRGA N-NE SLP141
04:39
V
2 °C 15 mi 24.000 ft 330° 330° 4 kt METAR CYYC 191039Z 33004KT 15SM FEW094 BKN240 02/M01 A2986 RMK AC2CI3 SLP139
04:00
V
4 °C 15 mi 23.000 ft Var Var 2 kt METAR CYYC 191000Z VRB02KT 15SM SCT095 BKN230 04/M01 A2985 RMK AC3CI3 SLP135
03:00
V
4 °C 15 mi - 320° 320° 6 kt METAR CYYC 190900Z 32006KT 15SM FEW220 04/M01 A2984 RMK CI2 SLP131
02:00
V
5 °C 15 mi - 280° 280° 11 kt METAR CYYC 190800Z 28011KT 15SM SCT220 05/M00 A2984 RMK CI3 SLP128
01:00
V
5 °C 15 mi - 300° 300° 5 kt METAR CYYC 190700Z 30005KT 15SM FEW220 05/M01 A2984 RMK CI2 SLP130
00:00
V
6 °C 15 mi 22.000 ft 230° 230° 4 kt METAR CYYC 190600Z 23004KT 15SM SCT095 BKN220 06/00 A2984 RMK AC3CI2 SLP128

18 mei 2024

Tijd Code Weer Temp. Zicht Plafond Wind METAR/SPECI
23:00
V
6 °C 15 mi 16.000 ft 280° 280° 4 kt METAR CYYC 190500Z 28004KT 15SM SCT096 BKN160 BKN230 06/M00 A2984 RMK AC3AC2CI1 SLP129
22:00
V
6 °C 15 mi 22.000 ft 310° 310° 5 kt METAR CYYC 190400Z 31005KT 15SM SCT120 BKN220 06/00 A2984 RMK AC3CI3 DIST CB TOPS NE SLP130
21:00
V
6 °C 15 mi 9.700 ft 350° 350° 9 kt METAR CYYC 190300Z 35009KT 15SM FEW046CB BKN097 BKN220 06/01 A2982 RMK CB2AC3CI2 VIRGA NW-NE/CB N-NE AND SE AND W SLP127
20:31
V
6 °C 20 mi 8.300 ft 360° 360° 12 kt METAR CYYC 190231Z 36012KT 20SM SCT046CB BKN083 BKN230 06/01 A2983 RMK CB3AC2CI2 VIRGA W-NE/CB W-NE AND SE SLP127
20:00
V
7 °C 20 mi 4.600 ft 360° 360° 17 - 23 kt METAR CYYC 190200Z 36017G23KT 20SM -SHRA BKN046CB BKN074 07/01 A2982 RMK CB5AC2 PCPN VRY LGT/CB NW-NE AND SE SLP128
19:56
V
7 °C 15 mi 4.600 ft 360° 360° 19 kt METAR CYYC 190156Z 36019KT 15SM -SHRA BKN046CB BKN076 07/01 A2982 RMK CB5AC2 PCPN VRY LGT SLP127
19:00
V
11 °C 30 mi 11.000 ft 280° 280° 5 kt METAR CYYC 190100Z 28005KT 240V300 30SM SCT070CB BKN110 BKN200 11/M05 A2978 RMK CB3AC2CI2 CB W-SE MOVG SE / SH W-SW SLP109 DENSITY ALT 4200FT
18:00
V
11 °C 20 mi 14.000 ft 290° 290° 5 kt METAR CYYC 190000Z 29005KT 250V330 20SM SCT070CB BKN140 OVC200 11/M04 A2978 RMK CB4AC1CI3 CB ALQDS MOVG SE / SH ALQDS SLP110 DENSITY ALT 4200FT
17:00
V
11 °C 20 mi 18.000 ft 250° 250° 5 kt METAR CYYC 182300Z 25005KT 230V310 20SM SCT088 BKN180 OVC200 11/M04 A2977 RMK ACC4AC1CI3 SH ALQDS SLP108 DENSITY ALT 4100FT
16:00
V
10 °C 20 mi 5.700 ft Var Var 3 kt METAR CYYC 182200Z VRB03KT 20SM BKN057CB BKN100 OVC250 10/M03 A2977 RMK CB5AC1CI2 CB ALQDS MOVG SE / SH ALQDS SLP109 DENSITY ALT 4100FT
15:49
V
9 °C 20 mi 5.700 ft Var Var 2 kt METAR CYYC 182149Z VRB02KT 20SM VCSH BKN057CB BKN100 OVC250 09/M02 A2978 RMK CB6AC1CI2 AC TR CB ALQDS MOVG SE SLP113 DENSITY ALT 4000FT
15:36
V
7 °C 20 mi 5.700 ft 180° 180° 2 - 17 kt METAR CYYC 182136Z 18002G17KT 20SM VCSH BKN057CB BKN095 OVC250 07/M02 A2980 RMK CB7AC1CI1 AC TR CB ALQDS MOVG SE SLP120
15:10
V
9 °C 20 mi 5.700 ft 320° 320° 20 - 26 kt METAR CYYC 182110Z 32020G26KT 20SM -SHRA BKN057CB BKN092 BKN250 09/M00 A2978 RMK CB7AC1CI1 AC TR CI TR CB ALQDS MOVG SE SLP111 DENSITY ALT 3900FT
15:00
V
10 °C 40 mi 7.000 ft 300° 300° 14 - 20 kt METAR CYYC 182100Z 30014G20KT 210V320 40SM BKN070CB BKN093 BKN250 10/M03 A2978 RMK CB6AC1CI1 AC TR CB ALQDS MOVG SE SLP111 DENSITY ALT 4000FT
14:00
V
11 °C 40 mi 10.000 ft 230° 230° 15 kt METAR CYYC 182000Z 23015KT 40SM SCT070CB BKN100 BKN250 11/M02 A2977 RMK CB4AC2CI1 CB ALQDS MOVG SE / SH ALQDS SLP107 DENSITY ALT 4200FT
13:18
V
10 °C 40 mi 4.800 ft 330° 330° 3 kt METAR CYYC 181918Z 33003KT 310V010 40SM VCSH BKN048CB BKN068 BKN250 10/M05 A2978 RMK CB5AC2CI1 CI TR CB E-NW MOVG SE SLP110 DENSITY ALT 4100FT
13:05
V
10 °C 40 mi 6.800 ft 360° 360° 5 kt METAR CYYC 181905Z 36005KT 240V010 40SM -SHRA BKN068CB 10/M05 A2978 RMK CB7 SLP111 DENSITY ALT 4100FT
12:00
V
11 °C 40 mi 6.700 ft 230° 230° 6 kt METAR CYYC 181800Z 23006KT 160V270 40SM BKN067 11/M06 A2979 RMK ACC7 CB ASOCTD W MOVG SE / DIST SH S-W SLP113 DENSITY ALT 4200FT
11:00
V
10 °C 40 mi 6.500 ft 270° 270° 3 kt METAR CYYC 181700Z 27003KT 230V040 40SM BKN065 BKN081 10/M05 A2980 RMK SC7AC1 AC TR TCU ASOCTD SLP117 DENSITY ALT 4100FT
10:00
V
9 °C 40 mi 8.500 ft 260° 260° 9 - 15 kt METAR CYYC 181600Z 26009G15KT 240V320 40SM SCT062 BKN085 09/M07 A2982 RMK SC4AC3 TCU ASOCTD / VIRGA SE AND S SLP120 DENSITY ALT 4000FT
09:00
V
8 °C 40 mi 8.500 ft 260° 260° 9 - 15 kt METAR CYYC 181500Z 26009G15KT 40SM BKN085 BKN120 08/M02 A2983 RMK ACC5AC2 SH W SLP125
08:00
V
6 °C 40 mi 10.000 ft 270° 270° 8 kt METAR CYYC 181400Z 27008KT 40SM SCT079 BKN100 06/M03 A2983 RMK ACC3AC2 DIST SH S AND W SLP127
07:00
V
5 °C 8 mi 8.000 ft 270° 270° 6 kt METAR CYYC 181300Z 27006KT 8SM BKN080 05/M02 A2984 RMK AC7 VIRGA SE AND SW-NW SLP129
06:00
V
4 °C 8 mi 11.000 ft 260° 260° 8 kt METAR CYYC 181200Z 26008KT 8SM FEW073 BKN110 04/M01 A2983 RMK AC2AC5 VIRGA SE-SW SLP130
05:42
V
4 °C 8 mi 9.500 ft 250° 250° 8 kt METAR CYYC 181142Z 25008KT 8SM FEW071 BKN095 04/M01 A2984 RMK AC1AC7 AC TR SLP130
05:00
V
4 °C 6 mi 7.200 ft 260° 260° 8 - 16 kt METAR CYYC 181100Z 26008G16KT 6SM -RA BR OVC072 04/M01 A2983 RMK AC8 SLP130
04:00
V
4 °C 6 mi 7.400 ft 260° 260° 7 kt METAR CYYC 181000Z 26007KT 6SM -RA BR OVC074 04/M01 A2984 RMK AC8 SLP133
03:00
V
5 °C 6 mi 6.100 ft 280° 280° 11 - 17 kt METAR CYYC 180900Z 28011G17KT 250V320 6SM -RA BKN061 OVC092 05/M02 A2983 RMK SC6AC2 SLP132
02:00
V
5 °C 7 mi 6.300 ft 300° 300° 7 kt METAR CYYC 180800Z 30007KT 7SM BKN063 05/M03 A2983 RMK SC6 SLP133
01:00
V
5 °C 6 mi 4.200 ft 320° 320° 12 - 27 kt METAR CYYC 180700Z 32012G27KT 280V020 6SM VCSH BKN042 05/M03 A2984 RMK SC6 SH SE-S /CVCTV CLD EMBD SLP137
00:00
V
5 °C 7 mi 6.100 ft 310° 310° 5 kt METAR CYYC 180600Z 31005KT 7SM BKN061 05/M02 A2984 RMK SC7 DIS SH W SLP140
Wijziging doorgeven